Time,TemperatureF,DewpointF,PressureIn,WindDirection,WindDirectionDegrees,WindSpeedMPH,WindSpeedGustMPH,Humidity,HourlyPrecipIn,Conditions,Clouds,dailyrainin,SolarRadiationWatts/m^2,SoftwareType,DateUTC
2013-06-05 00:04:00,53.3,49.5,29.99,West,260,0.0,10.0,87,0.00,,,0.00,0,Wunderground v.1.15,2013-06-05 07:04:00,
2013-06-05 00:10:00,53.1,49.3,29.99,NW,315,2.0,2.0,87,0.00,,,0.00,0,Wunderground v.1.15,2013-06-05 07:10:00,
2013-06-05 00:16:00,53.0,49.2,29.98,WNW,298,2.0,10.0,87,0.00,,,0.00,0,Wunderground v.1.15,2013-06-05 07:16:00,
2013-06-05 00:22:00,52.8,49.0,29.98,WNW,293,3.0,10.0,87,0.00,,,0.00,0,Wunderground v.1.15,2013-06-05 07:22:00,
2013-06-05 00:28:00,52.7,48.9,29.98,WNW,296,2.0,10.0,87,0.00,,,0.00,0,Wunderground v.1.15,2013-06-05 07:28:00,
2013-06-05 00:33:00,52.7,49.2,29.98,NW,321,1.0,10.0,88,0.00,,,0.00,0,Wunderground v.1.15,2013-06-05 07:33:00,
2013-06-05 00:39:00,52.6,49.1,29.99,NW,319,2.0,10.0,88,0.00,,,0.00,0,Wunderground v.1.15,2013-06-05 07:39:00,
2013-06-05 00:44:00,52.6,49.1,29.99,NW,314,2.0,10.0,88,0.00,,,0.00,0,Wunderground v.1.15,2013-06-05 07:44:00,
2013-06-05 00:50:00,52.6,49.1,29.98,NW,309,1.0,1.0,88,0.00,,,0.00,0,Wunderground v.1.15,2013-06-05 07:50:00,
2013-06-05 00:55:00,52.5,49.0,29.98,WNW,300,2.0,10.0,88,0.00,,,0.00,0,Wunderground v.1.15,2013-06-05 07:55:00,
2013-06-05 01:01:00,52.5,49.4,29.98,WNW,301,2.0,10.0,89,0.00,,,0.00,0,Wunderground v.1.15,2013-06-05 08:01:00,
2013-06-05 01:30:00,52.2,49.1,29.99,NW,312,2.0,10.0,89,0.00,,,0.00,0,Wunderground v.1.15,2013-06-05 08:30:00,
2013-06-05 01:36:00,52.1,49.0,29.99,NW,315,2.0,10.0,89,0.00,,,0.00,0,Wunderground v.1.15,2013-06-05 08:36:00,
2013-06-05 01:41:00,52.1,49.3,29.98,NW,317,2.0,10.0,90,0.00,,,0.00,0,Wunderground v.1.15,2013-06-05 08:41:00,
2013-06-05 01:47:00,52.1,49.3,29.98,NW,307,2.0,10.0,90,0.00,,,0.00,0,Wunderground v.1.15,2013-06-05 08:47:00,
2013-06-05 01:53:00,52.0,49.2,29.98,NW,306,1.0,10.0,90,0.00,,,0.00,0,Wunderground v.1.15,2013-06-05 08:53:00,
2013-06-05 01:58:00,52.0,49.2,29.98,NW,306,1.0,10.0,90,0.00,,,0.00,0,Wunderground v.1.15,2013-06-05 08:58:00,
2013-06-05 02:04:00,51.9,49.1,29.98,NW,313,2.0,10.0,90,0.00,,,0.00,0,Wunderground v.1.15,2013-06-05 09:04:00,
2013-06-05 02:10:00,51.9,49.4,29.98,NW,315,2.0,2.0,91,0.00,,,0.00,0,Wunderground v.1.15,2013-06-05 09:10:00,
2013-06-05 02:15:00,51.9,49.4,29.98,NW,315,3.0,10.0,91,0.00,,,0.00,0,Wunderground v.1.15,2013-06-05 09:15:00,
2013-06-05 02:20:00,51.8,49.3,29.98,NW,321,2.0,10.0,91,0.00,,,0.00,0,Wunderground v.1.15,2013-06-05 09:20:00,
2013-06-05 02:25:00,51.7,49.2,29.98,NNW,340,2.0,10.0,91,0.00,,,0.00,0,Wunderground v.1.15,2013-06-05 09:25:00,
2013-06-05 02:30:00,51.6,49.1,29.98,NW,304,1.0,1.0,91,0.00,,,0.00,0,Wunderground v.1.15,2013-06-05 09:30:00,
2013-06-05 02:36:00,51.6,49.1,29.98,NW,312,1.0,10.0,91,0.00,,,0.00,0,Wunderground v.1.15,2013-06-05 09:36:00,
2013-06-05 02:42:00,51.6,49.1,29.98,WNW,298,2.0,10.0,91,0.00,,,0.00,0,Wunderground v.1.15,2013-06-05 09:42:00,
2013-06-05 02:48:00,51.7,49.2,29.98,NW,311,2.0,10.0,91,0.00,,,0.00,0,Wunderground v.1.15,2013-06-05 09:48:00,
2013-06-05 02:53:00,51.6,49.1,29.98,NW,315,2.0,10.0,91,0.00,,,0.00,0,Wunderground v.1.15,2013-06-05 09:53:00,
2013-06-05 02:58:00,51.6,49.1,29.98,NW,321,2.0,10.0,91,0.00,,,0.00,0,Wunderground v.1.15,2013-06-05 09:58:00,
2013-06-05 03:04:00,51.6,49.1,29.98,NW,312,2.0,10.0,91,0.00,,,0.00,0,Wunderground v.1.15,2013-06-05 10:04:00,
2013-06-05 03:10:00,51.5,49.0,29.98,NW,313,3.0,3.0,91,0.00,,,0.00,0,Wunderground v.1.15,2013-06-05 10:10:00,
2013-06-05 03:15:00,51.4,49.2,29.98,WNW,303,2.0,10.0,92,0.00,,,0.00,0,Wunderground v.1.15,2013-06-05 10:15:00,
2013-06-05 03:21:00,51.4,49.2,29.98,NW,307,1.0,10.0,92,0.00,,,0.00,0,Wunderground v.1.15,2013-06-05 10:21:00,
2013-06-05 03:27:00,51.4,49.2,29.98,West,276,1.0,10.0,92,0.00,,,0.00,0,Wunderground v.1.15,2013-06-05 10:27:00,
2013-06-05 03:33:00,51.4,48.9,29.98,WSW,252,2.0,10.0,91,0.00,,,0.00,0,Wunderground v.1.15,2013-06-05 10:33:00,
2013-06-05 03:39:00,51.3,48.8,29.98,WSW,252,2.0,10.0,91,0.00,,,0.00,0,Wunderground v.1.15,2013-06-05 10:39:00,
2013-06-05 03:44:00,51.4,48.9,29.98,West,262,1.0,10.0,91,0.00,,,0.00,0,Wunderground v.1.15,2013-06-05 10:44:00,
2013-06-05 03:50:00,51.3,49.1,29.98,WSW,256,1.0,10.0,92,0.00,,,0.00,0,Wunderground v.1.15,2013-06-05 10:50:00,
2013-06-05 03:55:00,51.3,49.1,29.98,WSW,257,1.0,10.0,92,0.00,,,0.00,0,Wunderground v.1.15,2013-06-05 10:55:00,
2013-06-05 04:00:00,51.4,49.2,29.98,WSW,257,1.0,1.0,92,0.00,,,0.00,0,Wunderground v.1.15,2013-06-05 11:00:00,
2013-06-05 04:06:00,51.4,49.2,29.98,West,279,1.0,10.0,92,0.00,,,0.00,0,Wunderground v.1.15,2013-06-05 11:06:00,
2013-06-05 04:11:00,51.4,49.2,29.98,WNW,286,1.0,10.0,92,0.00,,,0.00,0,Wunderground v.1.15,2013-06-05 11:11:00,
2013-06-05 04:17:00,51.4,49.2,29.98,WNW,286,1.0,10.0,92,0.00,,,0.00,0,Wunderground v.1.15,2013-06-05 11:17:00,
2013-06-05 04:22:00,51.5,49.3,29.98,West,269,0.0,10.0,92,0.00,,,0.00,0,Wunderground v.1.15,2013-06-05 11:22:00,
2013-06-05 04:27:00,51.4,49.2,29.98,WNW,297,1.0,10.0,92,0.00,,,0.00,0,Wunderground v.1.15,2013-06-05 11:27:00,
2013-06-05 04:32:00,51.4,49.2,29.98,WNW,294,1.0,10.0,92,0.00,,,0.00,0,Wunderground v.1.15,2013-06-05 11:32:00,
2013-06-05 04:37:00,51.4,49.2,29.98,WNW,295,0.0,10.0,92,0.00,,,0.00,0,Wunderground v.1.15,2013-06-05 11:37:00,
2013-06-05 04:43:00,51.4,49.2,29.98,NW,309,1.0,10.0,92,0.00,,,0.00,0,Wunderground v.1.15,2013-06-05 11:43:00,
2013-06-05 04:49:00,51.3,49.1,29.98,NW,306,2.0,10.0,92,0.00,,,0.00,0,Wunderground v.1.15,2013-06-05 11:49:00,
2013-06-05 04:54:00,51.2,49.0,29.98,NW,307,2.0,10.0,92,0.00,,,0.00,0,Wunderground v.1.15,2013-06-05 11:54:00,
2013-06-05 05:00:00,51.2,49.0,29.98,NW,307,2.0,2.0,92,0.00,,,0.00,0,Wunderground v.1.15,2013-06-05 12:00:00,
2013-06-05 05:05:00,51.2,49.0,29.98,NW,308,1.0,10.0,92,0.00,,,0.00,0,Wunderground v.1.15,2013-06-05 12:05:00,
2013-06-05 05:10:00,51.2,49.0,29.98,NW,307,1.0,1.0,92,0.00,,,0.00,0,Wunderground v.1.15,2013-06-05 12:10:00,
2013-06-05 05:16:00,51.2,49.0,29.97,NW,307,0.0,10.0,92,0.00,,,0.00,0,Wunderground v.1.15,2013-06-05 12:16:00,
2013-06-05 05:22:00,51.2,49.0,29.98,NW,308,1.0,10.0,92,0.00,,,0.00,0,Wunderground v.1.15,2013-06-05 12:22:00,
2013-06-05 05:27:00,51.2,49.0,29.98,NW,307,1.0,10.0,92,0.00,,,0.00,0,Wunderground v.1.15,2013-06-05 12:27:00,
2013-06-05 05:33:00,51.2,49.0,29.98,NW,307,1.0,10.0,92,0.00,,,0.00,0,Wunderground v.1.15,2013-06-05 12:33:00,
2013-06-05 05:38:00,51.1,48.9,29.98,NW,307,0.0,10.0,92,0.00,,,0.00,0,Wunderground v.1.15,2013-06-05 12:38:00,
2013-06-05 05:44:00,51.1,48.9,29.98,NW,307,1.0,10.0,92,0.00,,,0.00,0,Wunderground v.1.15,2013-06-05 12:44:00,
2013-06-05 05:50:00,51.1,48.9,29.98,NW,307,0.0,10.0,92,0.00,,,0.00,0,Wunderground v.1.15,2013-06-05 12:50:00,
2013-06-05 05:56:00,51.1,48.9,29.98,NW,307,1.0,10.0,92,0.00,,,0.00,0,Wunderground v.1.15,2013-06-05 12:56:00,
2013-06-05 06:01:00,51.1,48.9,29.98,NW,308,1.0,10.0,92,0.00,,,0.00,0,Wunderground v.1.15,2013-06-05 13:01:00,
2013-06-05 06:07:00,51.2,49.0,29.98,NW,308,0.0,10.0,92,0.00,,,0.00,7,Wunderground v.1.15,2013-06-05 13:07:00,
2013-06-05 06:13:00,51.2,49.0,29.98,NW,308,1.0,10.0,92,0.00,,,0.00,9,Wunderground v.1.15,2013-06-05 13:13:00,
2013-06-05 06:18:00,51.2,49.0,29.99,NW,308,1.0,10.0,92,0.00,,,0.00,12,Wunderground v.1.15,2013-06-05 13:18:00,
2013-06-05 06:23:00,51.2,49.0,29.99,NW,308,0.0,10.0,92,0.00,,,0.00,16,Wunderground v.1.15,2013-06-05 13:23:00,
2013-06-05 06:29:00,51.3,49.1,29.99,NW,308,0.0,10.0,92,0.00,,,0.00,19,Wunderground v.1.15,2013-06-05 13:29:00,
2013-06-05 06:34:00,51.2,49.0,29.99,NW,308,0.0,10.0,92,0.00,,,0.00,19,Wunderground v.1.15,2013-06-05 13:34:00,
2013-06-05 06:40:00,51.2,49.0,29.99,NW,308,0.0,10.0,92,0.00,,,0.00,23,Wunderground v.1.15,2013-06-05 13:40:00,
2013-06-05 06:46:00,51.2,49.0,29.99,NW,308,0.0,10.0,92,0.00,,,0.00,26,Wunderground v.1.15,2013-06-05 13:46:00,
2013-06-05 06:51:00,51.2,49.0,29.99,NW,308,0.0,10.0,92,0.00,,,0.00,32,Wunderground v.1.15,2013-06-05 13:51:00,
2013-06-05 06:57:00,51.2,49.0,29.99,NW,308,0.0,10.0,92,0.00,,,0.00,47,Wunderground v.1.15,2013-06-05 13:57:00,
2013-06-05 07:02:00,51.3,49.1,29.99,NW,308,0.0,10.0,92,0.00,,,0.00,69,Wunderground v.1.15,2013-06-05 14:02:00,
2013-06-05 07:07:00,51.4,49.2,29.99,NW,308,0.0,10.0,92,0.00,,,0.00,77,Wunderground v.1.15,2013-06-05 14:07:00,
2013-06-05 07:13:00,51.4,49.2,30.00,NW,308,1.0,10.0,92,0.00,,,0.00,77,Wunderground v.1.15,2013-06-05 14:13:00,
2013-06-05 07:18:00,51.5,49.3,30.00,NW,308,1.0,10.0,92,0.00,,,0.00,76,Wunderground v.1.15,2013-06-05 14:18:00,
2013-06-05 07:24:00,51.6,49.4,30.00,NW,308,0.0,10.0,92,0.00,,,0.00,70,Wunderground v.1.15,2013-06-05 14:24:00,
2013-06-05 07:29:00,51.7,49.5,30.00,NW,308,0.0,10.0,92,0.00,,,0.00,74,Wunderground v.1.15,2013-06-05 14:29:00,
2013-06-05 07:35:00,51.8,49.3,30.00,NW,308,0.0,10.0,91,0.00,,,0.00,79,Wunderground v.1.15,2013-06-05 14:35:00,
2013-06-05 07:41:00,51.8,49.3,30.00,NW,308,0.0,10.0,91,0.00,,,0.00,95,Wunderground v.1.15,2013-06-05 14:41:00,
2013-06-05 07:47:00,51.9,49.4,30.00,NW,308,0.0,10.0,91,0.00,,,0.00,130,Wunderground v.1.15,2013-06-05 14:47:00,
2013-06-05 07:52:00,51.9,49.4,30.00,NW,308,0.0,10.0,91,0.00,,,0.00,165,Wunderground v.1.15,2013-06-05 14:52:00,
2013-06-05 07:57:00,52.0,49.5,30.00,NW,308,0.0,10.0,91,0.00,,,0.00,158,Wunderground v.1.15,2013-06-05 14:57:00,
2013-06-05 08:03:00,52.2,49.7,30.01,NW,308,0.0,10.0,91,0.00,,,0.00,125,Wunderground v.1.15,2013-06-05 15:03:00,
2013-06-05 08:08:00,52.2,49.7,30.01,NW,308,1.0,10.0,91,0.00,,,0.00,155,Wunderground v.1.15,2013-06-05 15:08:00,
2013-06-05 08:13:00,52.3,49.8,30.01,NW,308,1.0,10.0,91,0.00,,,0.00,167,Wunderground v.1.15,2013-06-05 15:13:00,
2013-06-05 08:19:00,52.4,49.8,30.01,NW,308,0.0,10.0,91,0.00,,,0.00,183,Wunderground v.1.15,2013-06-05 15:19:00,
2013-06-05 08:24:00,52.6,50.0,30.01,NW,308,0.0,10.0,91,0.00,,,0.00,206,Wunderground v.1.15,2013-06-05 15:24:00,
2013-06-05 08:29:00,52.8,49.9,30.01,NW,308,0.0,10.0,90,0.00,,,0.00,248,Wunderground v.1.15,2013-06-05 15:29:00,
2013-06-05 08:34:00,53.0,50.1,30.01,NW,308,0.0,10.0,90,0.00,,,0.00,299,Wunderground v.1.15,2013-06-05 15:34:00,
2013-06-05 08:39:00,53.1,49.9,30.02,NW,308,0.0,10.0,89,0.00,,,0.00,279,Wunderground v.1.15,2013-06-05 15:39:00,
2013-06-05 08:45:00,53.5,50.3,30.01,NW,308,0.0,10.0,89,0.00,,,0.00,239,Wunderground v.1.15,2013-06-05 15:45:00,
2013-06-05 08:51:00,54.0,50.5,30.02,NW,308,1.0,10.0,88,0.00,,,0.00,248,Wunderground v.1.15,2013-06-05 15:51:00,
2013-06-05 08:56:00,54.1,50.3,30.02,NW,310,1.0,10.0,87,0.00,,,0.00,332,Wunderground v.1.15,2013-06-05 15:56:00,
2013-06-05 09:02:00,54.5,50.7,30.02,NW,310,1.0,10.0,87,0.00,,,0.00,301,Wunderground v.1.15,2013-06-05 16:02:00,
2013-06-05 09:08:00,54.8,50.7,30.02,West,262,1.0,10.0,86,0.00,,,0.00,285,Wunderground v.1.15,2013-06-05 16:08:00,
2013-06-05 09:14:00,54.9,50.8,30.01,WNW,285,1.0,10.0,86,0.00,,,0.00,348,Wunderground v.1.15,2013-06-05 16:14:00,
2013-06-05 09:20:00,55.2,50.8,30.02,WNW,290,1.0,1.0,85,0.00,,,0.00,330,Wunderground v.1.15,2013-06-05 16:20:00,
2013-06-05 09:26:00,55.3,50.5,30.01,NW,304,1.0,10.0,84,0.00,,,0.00,355,Wunderground v.1.15,2013-06-05 16:26:00,
2013-06-05 09:31:00,55.3,50.5,30.02,NW,304,1.0,10.0,84,0.00,,,0.00,429,Wunderground v.1.15,2013-06-05 16:31:00,
2013-06-05 09:36:00,55.6,50.8,30.02,NW,311,1.0,10.0,84,0.00,,,0.00,295,Wunderground v.1.15,2013-06-05 16:36:00,
2013-06-05 09:42:00,55.8,51.0,30.02,NW,313,2.0,10.0,84,0.00,,,0.00,570,Wunderground v.1.15,2013-06-05 16:42:00,
2013-06-05 09:47:00,56.1,51.3,30.01,WNW,296,1.0,10.0,84,0.00,,,0.00,471,Wunderground v.1.15,2013-06-05 16:47:00,
2013-06-05 09:52:00,56.6,51.5,30.01,NW,321,1.0,10.0,83,0.00,,,0.00,568,Wunderground v.1.15,2013-06-05 16:52:00,
2013-06-05 09:58:00,57.0,51.6,30.01,NNW,328,1.0,10.0,82,0.00,,,0.00,499,Wunderground v.1.15,2013-06-05 16:58:00,
2013-06-05 10:03:00,57.6,51.8,30.01,NNE,15,1.0,10.0,81,0.00,,,0.00,506,Wunderground v.1.15,2013-06-05 17:03:00,
2013-06-05 10:09:00,58.0,51.9,30.01,North,5,1.0,10.0,80,0.00,,,0.00,967,Wunderground v.1.15,2013-06-05 17:09:00,
2013-06-05 10:14:00,58.7,52.2,30.00,West,263,1.0,10.0,79,0.00,,,0.00,670,Wunderground v.1.15,2013-06-05 17:14:00,
2013-06-05 10:20:00,59.4,52.2,30.01,North,5,1.0,10.0,77,0.00,,,0.00,761,Wunderground v.1.15,2013-06-05 17:20:00,
2013-06-05 10:26:00,59.8,52.2,30.00,NNE,31,1.0,10.0,76,0.00,,,0.00,759,Wunderground v.1.15,2013-06-05 17:26:00,
2013-06-05 10:31:00,60.2,52.6,30.00,WNW,288,2.0,10.0,76,0.00,,,0.00,765,Wunderground v.1.15,2013-06-05 17:31:00,
2013-06-05 10:36:00,60.9,52.6,30.00,NW,319,2.0,10.0,74,0.00,,,0.00,773,Wunderground v.1.15,2013-06-05 17:36:00,
2013-06-05 10:41:00,61.4,52.7,30.01,NNW,338,2.0,10.0,73,0.00,,,0.00,788,Wunderground v.1.15,2013-06-05 17:41:00,
2013-06-05 10:47:00,61.7,53.0,30.00,NNW,346,2.0,10.0,73,0.00,,,0.00,800,Wunderground v.1.15,2013-06-05 17:47:00,
2013-06-05 10:53:00,61.9,53.1,30.00,WNW,290,2.0,10.0,73,0.00,,,0.00,810,Wunderground v.1.15,2013-06-05 17:53:00,
2013-06-05 10:58:00,62.5,53.0,30.00,NW,322,2.0,10.0,71,0.00,,,0.00,821,Wunderground v.1.15,2013-06-05 17:58:00,
2013-06-05 11:04:00,62.7,53.2,30.00,NW,307,2.0,10.0,71,0.00,,,0.00,833,Wunderground v.1.15,2013-06-05 18:04:00,
2013-06-05 11:09:00,62.9,53.0,30.00,NW,315,3.0,10.0,70,0.00,,,0.00,844,Wunderground v.1.15,2013-06-05 18:09:00,
2013-06-05 11:15:00,63.5,53.5,30.00,NW,322,2.0,10.0,70,0.00,,,0.00,854,Wunderground v.1.15,2013-06-05 18:15:00,
2013-06-05 11:20:00,64.6,54.2,29.99,WSW,255,1.0,1.0,69,0.00,,,0.00,863,Wunderground v.1.15,2013-06-05 18:20:00,
2013-06-05 11:26:00,65.4,54.2,29.99,NW,323,2.0,10.0,67,0.00,,,0.00,874,Wunderground v.1.15,2013-06-05 18:26:00,
2013-06-05 11:31:00,65.8,54.1,29.99,NNW,336,2.0,10.0,66,0.00,,,0.00,881,Wunderground v.1.15,2013-06-05 18:31:00,
2013-06-05 11:36:00,66.1,54.0,29.99,NW,324,2.0,10.0,65,0.00,,,0.00,889,Wunderground v.1.15,2013-06-05 18:36:00,
2013-06-05 11:42:00,66.6,54.9,29.99,NNW,330,2.0,10.0,66,0.00,,,0.00,898,Wunderground v.1.15,2013-06-05 18:42:00,
2013-06-05 11:47:00,67.0,54.4,29.98,WNW,301,1.0,10.0,64,0.00,,,0.00,905,Wunderground v.1.15,2013-06-05 18:47:00,
2013-06-05 11:52:00,67.3,54.3,29.98,West,266,1.0,10.0,63,0.00,,,0.00,909,Wunderground v.1.15,2013-06-05 18:52:00,
2013-06-05 11:57:00,68.3,54.8,29.98,North,355,1.0,10.0,62,0.00,,,0.00,914,Wunderground v.1.15,2013-06-05 18:57:00,
2013-06-05 12:02:00,68.8,55.2,29.98,WSW,244,1.0,10.0,62,0.00,,,0.00,919,Wunderground v.1.15,2013-06-05 19:02:00,
2013-06-05 12:08:00,68.7,54.7,29.98,North,349,2.0,10.0,61,0.00,,,0.00,925,Wunderground v.1.15,2013-06-05 19:08:00,
2013-06-05 12:14:00,68.9,54.9,29.98,NNW,347,3.0,10.0,61,0.00,,,0.00,932,Wunderground v.1.15,2013-06-05 19:14:00,
2013-06-05 12:19:00,69.3,54.8,29.98,NW,317,3.0,10.0,60,0.00,,,0.00,937,Wunderground v.1.15,2013-06-05 19:19:00,
2013-06-05 12:25:00,70.1,55.6,29.98,North,350,2.0,10.0,60,0.00,,,0.00,942,Wunderground v.1.15,2013-06-05 19:25:00,
2013-06-05 12:31:00,71.0,55.5,29.98,West,270,2.0,10.0,58,0.00,,,0.00,946,Wunderground v.1.15,2013-06-05 19:31:00,
2013-06-05 12:37:00,71.1,55.6,29.97,NW,319,2.0,10.0,58,0.00,,,0.00,949,Wunderground v.1.15,2013-06-05 19:37:00,
2013-06-05 12:42:00,71.1,55.6,29.97,WNW,302,3.0,10.0,58,0.00,,,0.00,951,Wunderground v.1.15,2013-06-05 19:42:00,
2013-06-05 12:47:00,71.3,55.8,29.97,West,268,3.0,10.0,58,0.00,,,0.00,954,Wunderground v.1.15,2013-06-05 19:47:00,
2013-06-05 12:53:00,71.5,55.5,29.96,NW,307,3.0,10.0,57,0.00,,,0.00,956,Wunderground v.1.15,2013-06-05 19:53:00,
2013-06-05 12:58:00,71.9,56.3,29.96,NNW,337,2.0,10.0,58,0.00,,,0.00,956,Wunderground v.1.15,2013-06-05 19:58:00,
2013-06-05 13:03:00,72.8,56.2,29.96,NNW,333,2.0,10.0,56,0.00,,,0.00,962,Wunderground v.1.15,2013-06-05 20:03:00,
2013-06-05 13:09:00,73.7,56.5,29.96,NW,306,2.0,10.0,55,0.00,,,0.00,962,Wunderground v.1.15,2013-06-05 20:09:00,
2013-06-05 13:14:00,73.8,56.1,29.96,NW,323,3.0,10.0,54,0.00,,,0.00,962,Wunderground v.1.15,2013-06-05 20:14:00,
2013-06-05 13:19:00,74.0,56.3,29.95,WNW,289,3.0,10.0,54,0.00,,,0.00,960,Wunderground v.1.15,2013-06-05 20:19:00,
2013-06-05 13:25:00,74.5,56.8,29.95,NNW,328,2.0,10.0,54,0.00,,,0.00,962,Wunderground v.1.15,2013-06-05 20:25:00,
2013-06-05 13:31:00,75.1,56.8,29.95,NW,308,2.0,4.0,53,0.00,,,0.00,958,Wunderground v.1.15,2013-06-05 20:31:00,
2013-06-05 13:37:00,75.2,56.9,29.95,NW,325,3.0,11.0,53,0.00,,,0.00,956,Wunderground v.1.15,2013-06-05 20:37:00,
2013-06-05 13:43:00,75.5,56.6,29.95,NW,313,3.0,10.0,52,0.00,,,0.00,954,Wunderground v.1.15,2013-06-05 20:43:00,
2013-06-05 13:48:00,75.4,56.5,29.95,NW,321,4.0,10.0,52,0.00,,,0.00,953,Wunderground v.1.15,2013-06-05 20:48:00,
2013-06-05 13:54:00,75.6,56.2,29.94,WSW,257,3.0,10.0,51,0.00,,,0.00,951,Wunderground v.1.15,2013-06-05 20:54:00,
2013-06-05 13:59:00,75.4,56.5,29.94,WSW,248,3.0,10.0,52,0.00,,,0.00,947,Wunderground v.1.15,2013-06-05 20:59:00,
2013-06-05 14:04:00,75.7,56.3,29.95,NW,317,3.0,10.0,51,0.00,,,0.00,944,Wunderground v.1.15,2013-06-05 21:04:00,
2013-06-05 14:10:00,76.0,56.6,29.95,WSW,248,2.0,2.0,51,0.00,,,0.00,939,Wunderground v.1.15,2013-06-05 21:10:00,
2013-06-05 14:16:00,76.6,56.6,29.94,WSW,239,2.0,10.0,50,0.00,,,0.00,933,Wunderground v.1.15,2013-06-05 21:16:00,
2013-06-05 14:21:00,77.0,56.4,29.94,NW,325,3.0,10.0,49,0.00,,,0.00,928,Wunderground v.1.15,2013-06-05 21:21:00,
2013-06-05 14:26:00,76.5,55.9,29.94,NW,311,3.0,10.0,49,0.00,,,0.00,921,Wunderground v.1.15,2013-06-05 21:26:00,
2013-06-05 14:31:00,75.9,55.9,29.94,WSW,239,4.0,10.0,50,0.00,,,0.00,916,Wunderground v.1.15,2013-06-05 21:31:00,
2013-06-05 14:37:00,76.2,56.2,29.95,SSW,213,3.0,10.0,50,0.00,,,0.00,911,Wunderground v.1.15,2013-06-05 21:37:00,
2013-06-05 14:43:00,75.8,55.8,29.94,SSW,193,4.0,10.0,50,0.00,,,0.00,900,Wunderground v.1.15,2013-06-05 21:43:00,
2013-06-05 14:48:00,75.5,55.6,29.94,SW,215,4.0,10.0,50,0.00,,,0.00,893,Wunderground v.1.15,2013-06-05 21:48:00,
2013-06-05 14:54:00,75.1,55.7,29.94,WSW,242,4.0,10.0,51,0.00,,,0.00,886,Wunderground v.1.15,2013-06-05 21:54:00,
2013-06-05 15:00:00,75.4,56.0,29.94,WSW,258,3.0,10.0,51,0.00,,,0.00,874,Wunderground v.1.15,2013-06-05 22:00:00,
2013-06-05 15:05:00,75.7,56.3,29.94,West,267,2.0,10.0,51,0.00,,,0.00,868,Wunderground v.1.15,2013-06-05 22:05:00,
2013-06-05 15:10:00,75.3,55.4,29.94,West,271,3.0,10.0,50,0.00,,,0.00,860,Wunderground v.1.15,2013-06-05 22:10:00,
2013-06-05 15:16:00,74.6,55.3,29.94,WSW,242,4.0,11.0,51,0.00,,,0.00,849,Wunderground v.1.15,2013-06-05 22:16:00,
2013-06-05 15:22:00,74.6,55.3,29.94,SW,224,3.0,10.0,51,0.00,,,0.00,838,Wunderground v.1.15,2013-06-05 22:22:00,
2013-06-05 15:27:00,74.4,55.6,29.94,SW,229,4.0,10.0,52,0.00,,,0.00,826,Wunderground v.1.15,2013-06-05 22:27:00,
2013-06-05 15:32:00,74.0,55.3,29.94,WSW,238,4.0,10.0,52,0.00,,,0.00,817,Wunderground v.1.15,2013-06-05 22:32:00,
2013-06-05 15:38:00,74.1,55.3,29.94,WSW,250,3.0,10.0,52,0.00,,,0.00,805,Wunderground v.1.15,2013-06-05 22:38:00,
2013-06-05 15:43:00,74.0,55.3,29.94,SW,216,3.0,10.0,52,0.00,,,0.00,795,Wunderground v.1.15,2013-06-05 22:43:00,
2013-06-05 15:49:00,73.8,55.1,29.94,SSW,210,4.0,10.0,52,0.00,,,0.00,780,Wunderground v.1.15,2013-06-05 22:49:00,
2013-06-05 15:54:00,73.5,54.8,29.94,WSW,252,4.0,10.0,52,0.00,,,0.00,768,Wunderground v.1.15,2013-06-05 22:54:00,
2013-06-05 16:00:00,73.2,55.0,29.93,West,276,4.0,10.0,53,0.00,,,0.00,756,Wunderground v.1.15,2013-06-05 23:00:00,
2013-06-05 16:05:00,73.0,54.9,29.93,SSW,206,4.0,10.0,53,0.00,,,0.00,744,Wunderground v.1.15,2013-06-05 23:05:00,
2013-06-05 16:11:00,73.0,55.4,29.93,WNW,292,3.0,10.0,54,0.00,,,0.00,728,Wunderground v.1.15,2013-06-05 23:11:00,
2013-06-05 16:17:00,73.4,55.7,29.93,North,355,1.0,10.0,54,0.00,,,0.00,715,Wunderground v.1.15,2013-06-05 23:17:00,
2013-06-05 16:22:00,73.9,55.7,29.93,West,259,2.0,10.0,53,0.00,,,0.00,705,Wunderground v.1.15,2013-06-05 23:22:00,
2013-06-05 16:27:00,74.3,55.5,29.93,NW,313,2.0,10.0,52,0.00,,,0.00,686,Wunderground v.1.15,2013-06-05 23:27:00,
2013-06-05 16:33:00,74.8,56.0,29.92,SSW,210,1.0,10.0,52,0.00,,,0.00,673,Wunderground v.1.15,2013-06-05 23:33:00,
2013-06-05 16:38:00,74.9,56.1,29.93,WSW,244,2.0,10.0,52,0.00,,,0.00,659,Wunderground v.1.15,2013-06-05 23:38:00,
2013-06-05 16:43:00,74.9,55.6,29.93,WSW,254,2.0,10.0,51,0.00,,,0.00,647,Wunderground v.1.15,2013-06-05 23:43:00,
2013-06-05 16:49:00,74.7,55.4,29.92,WSW,257,3.0,10.0,51,0.00,,,0.00,629,Wunderground v.1.15,2013-06-05 23:49:00,
2013-06-05 16:54:00,74.1,55.3,29.92,WSW,256,3.0,10.0,52,0.00,,,0.00,615,Wunderground v.1.15,2013-06-05 23:54:00,
2013-06-05 17:00:00,73.6,54.9,29.92,SSW,204,2.0,2.0,52,0.00,,,0.00,598,Wunderground v.1.15,2013-06-06 00:00:00,
2013-06-05 17:05:00,73.4,55.2,29.93,WSW,253,3.0,10.0,53,0.00,,,0.00,582,Wunderground v.1.15,2013-06-06 00:05:00,
2013-06-05 17:10:00,73.1,54.9,29.92,NW,322,3.0,10.0,53,0.00,,,0.00,568,Wunderground v.1.15,2013-06-06 00:10:00,
2013-06-05 17:15:00,72.7,55.1,29.92,NNW,336,3.0,10.0,54,0.00,,,0.00,554,Wunderground v.1.15,2013-06-06 00:15:00,
2013-06-05 17:20:00,72.1,54.5,29.92,NW,304,5.0,10.0,54,0.00,,,0.00,540,Wunderground v.1.15,2013-06-06 00:20:00,
2013-06-05 17:25:00,71.7,54.7,29.93,WNW,289,4.0,10.0,55,0.00,,,0.00,524,Wunderground v.1.15,2013-06-06 00:25:00,
2013-06-05 17:31:00,71.6,54.6,29.93,WSW,244,2.0,10.0,55,0.00,,,0.00,504,Wunderground v.1.15,2013-06-06 00:31:00,
2013-06-05 17:36:00,71.3,54.8,29.92,North,351,3.0,10.0,56,0.00,,,0.00,490,Wunderground v.1.15,2013-06-06 00:36:00,
2013-06-05 17:42:00,71.2,54.7,29.92,WSW,254,3.0,10.0,56,0.00,,,0.00,471,Wunderground v.1.15,2013-06-06 00:42:00,
2013-06-05 17:47:00,71.1,54.6,29.92,West,263,2.0,10.0,56,0.00,,,0.00,455,Wunderground v.1.15,2013-06-06 00:47:00,
2013-06-05 17:53:00,71.0,54.0,29.93,WNW,286,1.0,10.0,55,0.00,,,0.00,434,Wunderground v.1.15,2013-06-06 00:53:00,
2013-06-05 17:58:00,70.4,54.0,29.92,WNW,284,1.0,10.0,56,0.00,,,0.00,418,Wunderground v.1.15,2013-06-06 00:58:00,
2013-06-05 18:03:00,70.3,53.9,29.92,NW,311,2.0,10.0,56,0.00,,,0.00,404,Wunderground v.1.15,2013-06-06 01:03:00,
2013-06-05 18:08:00,69.8,53.9,29.92,North,350,2.0,10.0,57,0.00,,,0.00,388,Wunderground v.1.15,2013-06-06 01:08:00,
2013-06-05 18:14:00,69.1,53.7,29.92,NNW,336,4.0,10.0,58,0.00,,,0.00,371,Wunderground v.1.15,2013-06-06 01:14:00,
2013-06-05 18:19:00,68.1,53.2,29.92,WNW,294,4.0,10.0,59,0.00,,,0.00,353,Wunderground v.1.15,2013-06-06 01:19:00,
2013-06-05 18:24:00,67.3,53.4,29.92,NW,311,5.0,10.0,61,0.00,,,0.00,336,Wunderground v.1.15,2013-06-06 01:24:00,
2013-06-05 18:29:00,66.7,52.8,29.93,NW,308,5.0,10.0,61,0.00,,,0.00,320,Wunderground v.1.15,2013-06-06 01:29:00,
2013-06-05 18:35:00,66.5,53.5,29.93,NW,323,4.0,10.0,63,0.00,,,0.00,301,Wunderground v.1.15,2013-06-06 01:35:00,
2013-06-05 18:40:00,66.5,53.1,29.93,NW,315,3.0,3.0,62,0.00,,,0.00,285,Wunderground v.1.15,2013-06-06 01:40:00,
2013-06-05 18:46:00,66.2,52.8,29.92,NW,308,3.0,10.0,62,0.00,,,0.00,265,Wunderground v.1.15,2013-06-06 01:46:00,
2013-06-05 18:51:00,66.0,52.6,29.92,NW,321,3.0,10.0,62,0.00,,,0.00,241,Wunderground v.1.15,2013-06-06 01:51:00,
2013-06-05 18:57:00,65.5,52.6,29.93,WNW,295,3.0,10.0,63,0.00,,,0.00,227,Wunderground v.1.15,2013-06-06 01:57:00,
2013-06-05 19:03:00,65.1,52.6,29.93,NW,307,3.0,10.0,64,0.00,,,0.00,200,Wunderground v.1.15,2013-06-06 02:03:00,
2013-06-05 19:08:00,64.7,52.7,29.93,NW,311,3.0,10.0,65,0.00,,,0.00,186,Wunderground v.1.15,2013-06-06 02:08:00,
2013-06-05 19:13:00,64.3,52.3,29.93,West,280,3.0,10.0,65,0.00,,,0.00,167,Wunderground v.1.15,2013-06-06 02:13:00,
2013-06-05 19:18:00,64.0,52.4,29.93,NW,312,2.0,10.0,66,0.00,,,0.00,148,Wunderground v.1.15,2013-06-06 02:18:00,
2013-06-05 19:24:00,63.6,52.0,29.93,SW,229,1.0,10.0,66,0.00,,,0.00,132,Wunderground v.1.15,2013-06-06 02:24:00,
2013-06-05 19:29:00,63.0,51.5,29.93,WSW,243,1.0,10.0,66,0.00,,,0.00,111,Wunderground v.1.15,2013-06-06 02:29:00,
2013-06-05 19:34:00,62.5,51.4,29.93,SW,229,1.0,10.0,67,0.00,,,0.00,97,Wunderground v.1.15,2013-06-06 02:34:00,
2013-06-05 19:40:00,62.0,51.3,29.94,SW,217,1.0,10.0,68,0.00,,,0.00,76,Wunderground v.1.15,2013-06-06 02:40:00,
2013-06-05 19:45:00,61.5,51.2,29.94,SW,214,1.0,10.0,69,0.00,,,0.00,30,Wunderground v.1.15,2013-06-06 02:45:00,
2013-06-05 19:50:00,60.7,50.9,29.94,SW,223,1.0,1.0,70,0.00,,,0.00,26,Wunderground v.1.15,2013-06-06 02:50:00,
2013-06-05 19:55:00,60.1,50.7,29.94,SW,232,1.0,10.0,71,0.00,,,0.00,28,Wunderground v.1.15,2013-06-06 02:55:00,
2013-06-05 20:01:00,59.6,50.9,29.94,SW,232,1.0,10.0,73,0.00,,,0.00,26,Wunderground v.1.15,2013-06-06 03:01:00,
2013-06-05 20:06:00,59.2,50.9,29.94,SW,232,0.0,10.0,74,0.00,,,0.00,19,Wunderground v.1.15,2013-06-06 03:06:00,
2013-06-05 20:11:00,58.9,50.6,29.95,WSW,237,1.0,4.0,74,0.00,,,0.00,16,Wunderground v.1.15,2013-06-06 03:11:00,
2013-06-05 20:17:00,58.4,50.5,29.94,WSW,250,2.0,10.0,75,0.00,,,0.00,12,Wunderground v.1.15,2013-06-06 03:17:00,
2013-06-05 20:23:00,58.0,50.5,29.95,WSW,251,1.0,10.0,76,0.00,,,0.00,9,Wunderground v.1.15,2013-06-06 03:23:00,
2013-06-05 20:28:00,57.6,50.1,29.94,WSW,252,1.0,10.0,76,0.00,,,0.00,5,Wunderground v.1.15,2013-06-06 03:28:00,
2013-06-05 20:34:00,57.3,50.1,29.95,WSW,254,1.0,10.0,77,0.00,,,0.00,0,Wunderground v.1.15,2013-06-06 03:34:00,
2013-06-05 20:40:00,56.9,50.1,29.95,WNW,297,1.0,10.0,78,0.00,,,0.00,0,Wunderground v.1.15,2013-06-06 03:40:00,
2013-06-05 20:45:00,56.5,49.7,29.95,NW,321,1.0,10.0,78,0.00,,,0.00,0,Wunderground v.1.15,2013-06-06 03:45:00,
2013-06-05 20:50:00,56.2,49.8,29.95,WSW,256,1.0,10.0,79,0.00,,,0.00,0,Wunderground v.1.15,2013-06-06 03:50:00,
2013-06-05 20:56:00,55.9,49.8,29.95,WNW,290,1.0,10.0,80,0.00,,,0.00,0,Wunderground v.1.15,2013-06-06 03:56:00,
2013-06-05 21:01:00,55.7,50.0,29.95,WNW,292,1.0,10.0,81,0.00,,,0.00,0,Wunderground v.1.15,2013-06-06 04:01:00,
2013-06-05 21:02:00,55.6,49.9,29.95,WNW,295,1.0,10.0,81,0.00,,,0.00,0,Wunderground v.1.15,2013-06-06 04:02:00,
2013-06-05 21:03:00,55.6,49.9,29.95,NW,319,1.0,10.0,81,0.00,,,0.00,0,Wunderground v.1.15,2013-06-06 04:03:00,
2013-06-05 21:05:00,55.5,49.8,29.95,WNW,297,1.0,10.0,81,0.00,,,0.00,0,Wunderground v.1.15,2013-06-06 04:05:00,
2013-06-05 21:10:00,55.3,49.9,29.95,WSW,249,1.0,1.0,82,0.00,,,0.00,0,Wunderground v.1.15,2013-06-06 04:10:00,
2013-06-05 21:15:00,55.3,49.9,29.96,West,266,1.0,10.0,82,0.00,,,0.00,0,Wunderground v.1.15,2013-06-06 04:15:00,
2013-06-05 21:21:00,55.2,49.8,29.96,West,267,0.0,10.0,82,0.00,,,0.00,0,Wunderground v.1.15,2013-06-06 04:21:00,
2013-06-05 21:26:00,55.2,50.1,29.96,West,267,1.0,10.0,83,0.00,,,0.00,0,Wunderground v.1.15,2013-06-06 04:26:00,
2013-06-05 21:32:00,55.0,49.9,29.97,WNW,287,1.0,10.0,83,0.00,,,0.00,0,Wunderground v.1.15,2013-06-06 04:32:00,
2013-06-05 21:38:00,54.9,49.8,29.97,WNW,292,0.0,10.0,83,0.00,,,0.00,0,Wunderground v.1.15,2013-06-06 04:38:00,
2013-06-05 21:43:00,54.6,49.5,29.97,West,274,1.0,10.0,83,0.00,,,0.00,0,Wunderground v.1.15,2013-06-06 04:43:00,
2013-06-05 21:48:00,54.5,49.8,29.97,West,274,1.0,10.0,84,0.00,,,0.00,0,Wunderground v.1.15,2013-06-06 04:48:00,
2013-06-05 21:54:00,54.3,49.6,29.97,West,267,1.0,10.0,84,0.00,,,0.00,0,Wunderground v.1.15,2013-06-06 04:54:00,
2013-06-05 21:59:00,54.0,49.3,29.97,West,260,2.0,10.0,84,0.00,,,0.00,0,Wunderground v.1.15,2013-06-06 04:59:00,
2013-06-05 22:04:00,53.8,49.4,29.97,West,269,1.0,10.0,85,0.00,,,0.00,0,Wunderground v.1.15,2013-06-06 05:04:00,
2013-06-05 22:09:00,53.7,49.3,29.97,WNW,282,1.0,10.0,85,0.00,,,0.00,0,Wunderground v.1.15,2013-06-06 05:09:00,
2013-06-05 22:14:00,53.6,49.5,29.97,West,271,1.0,10.0,86,0.00,,,0.00,0,Wunderground v.1.15,2013-06-06 05:14:00,
2013-06-05 22:20:00,53.5,49.4,29.97,WNW,282,1.0,1.0,86,0.00,,,0.00,0,Wunderground v.1.15,2013-06-06 05:20:00,
2013-06-05 22:25:00,53.4,49.3,29.97,West,273,1.0,10.0,86,0.00,,,0.00,0,Wunderground v.1.15,2013-06-06 05:25:00,
2013-06-05 22:31:00,53.3,49.5,29.97,West,277,1.0,10.0,87,0.00,,,0.00,0,Wunderground v.1.15,2013-06-06 05:31:00,
2013-06-05 22:37:00,53.4,49.6,29.98,NNW,340,1.0,10.0,87,0.00,,,0.00,0,Wunderground v.1.15,2013-06-06 05:37:00,
2013-06-05 22:43:00,53.4,49.6,29.98,NW,322,2.0,10.0,87,0.00,,,0.00,0,Wunderground v.1.15,2013-06-06 05:43:00,
2013-06-05 22:49:00,53.2,49.4,29.98,NNW,332,3.0,10.0,87,0.00,,,0.00,0,Wunderground v.1.15,2013-06-06 05:49:00,
2013-06-05 22:54:00,53.2,49.4,29.97,NW,326,2.0,10.0,87,0.00,,,0.00,0,Wunderground v.1.15,2013-06-06 05:54:00,
2013-06-05 22:59:00,53.1,49.3,29.97,NW,319,2.0,10.0,87,0.00,,,0.00,0,Wunderground v.1.15,2013-06-06 05:59:00,
2013-06-05 23:04:00,53.0,49.2,29.97,NW,313,2.0,10.0,87,0.00,,,0.00,0,Wunderground v.1.15,2013-06-06 06:04:00,
2013-06-05 23:10:00,52.9,49.1,29.97,NW,319,2.0,10.0,87,0.00,,,0.00,0,Wunderground v.1.15,2013-06-06 06:10:00,
2013-06-05 23:15:00,52.8,49.3,29.97,NW,316,2.0,10.0,88,0.00,,,0.00,0,Wunderground v.1.15,2013-06-06 06:15:00,
2013-06-05 23:20:00,52.7,49.2,29.97,NW,323,3.0,10.0,88,0.00,,,0.00,0,Wunderground v.1.15,2013-06-06 06:20:00,
2013-06-05 23:26:00,52.6,49.1,29.97,NW,320,2.0,10.0,88,0.00,,,0.00,0,Wunderground v.1.15,2013-06-06 06:26:00,
2013-06-05 23:31:00,52.6,49.1,29.97,NW,315,2.0,10.0,88,0.00,,,0.00,0,Wunderground v.1.15,2013-06-06 06:31:00,
2013-06-05 23:36:00,52.4,48.9,29.97,NNW,331,2.0,10.0,88,0.00,,,0.00,0,Wunderground v.1.15,2013-06-06 06:36:00,
2013-06-05 23:42:00,52.3,48.9,29.97,NNW,339,2.0,10.0,88,0.00,,,0.00,0,Wunderground v.1.15,2013-06-06 06:42:00,
2013-06-05 23:47:00,52.2,49.1,29.97,NW,314,2.0,10.0,89,0.00,,,0.00,0,Wunderground v.1.15,2013-06-06 06:47:00,
2013-06-05 23:52:00,52.1,49.0,29.97,NW,311,2.0,10.0,89,0.00,,,0.00,0,Wunderground v.1.15,2013-06-06 06:52:00,
2013-06-05 23:57:00,51.9,48.8,29.97,NW,305,2.0,10.0,89,0.00,,,0.00,0,Wunderground v.1.15,2013-06-06 06:57:00,